createdAt,value
2022-10-07T00:02:10.165Z,4.35
2022-10-07T00:04:37.139Z,4.00
2022-10-07T00:07:03.654Z,4.25
2022-10-07T00:09:30.200Z,4.28
2022-10-07T00:11:56.761Z,4.20
2022-10-07T00:14:23.235Z,3.55
2022-10-07T00:16:49.854Z,3.75
2022-10-07T00:19:16.338Z,4.13
2022-10-07T00:21:42.895Z,3.80
2022-10-07T00:24:11.154Z,4.05
2022-10-07T00:26:38.429Z,4.10
2022-10-07T00:29:06.653Z,3.92
2022-10-07T00:31:37.094Z,4.10
2022-10-07T00:34:04.714Z,4.38
2022-10-07T00:36:34.137Z,3.97
2022-10-07T00:39:05.723Z,3.75
2022-10-07T00:41:39.313Z,3.50
2022-10-07T00:44:33.979Z,3.92
2022-10-07T00:47:28.298Z,3.15
2022-10-07T00:50:02.235Z,2.80
2022-10-07T00:52:32.852Z,3.45
2022-10-07T00:55:04.265Z,3.50
2022-10-07T00:57:32.110Z,3.35
2022-10-07T00:59:59.507Z,3.13
2022-10-07T01:02:28.510Z,3.50
2022-10-07T01:04:59.443Z,3.20
2022-10-07T01:07:27.865Z,2.92
2022-10-07T01:10:00.165Z,3.40
2022-10-07T01:13:04.909Z,3.72
2022-10-07T01:15:43.105Z,3.15
2022-10-07T01:18:28.405Z,3.45
2022-10-07T01:20:59.608Z,3.60
2022-10-07T01:23:32.017Z,3.40
2022-10-07T01:26:22.578Z,3.22
2022-10-07T01:29:05.699Z,3.30
2022-10-07T01:31:42.564Z,3.63
2022-10-07T01:34:10.840Z,2.90
2022-10-07T01:36:38.241Z,2.70
2022-10-07T01:39:11.307Z,2.83
2022-10-07T01:41:39.513Z,2.70
2022-10-07T01:44:08.937Z,3.08
2022-10-07T01:46:37.901Z,2.78
2022-10-07T01:49:07.504Z,3.17
2022-10-07T01:51:37.083Z,2.85
2022-10-07T01:54:30.171Z,3.50
2022-10-07T01:57:14.679Z,3.33
2022-10-07T01:59:53.112Z,2.75
2022-10-07T02:02:34.499Z,2.50
2022-10-07T02:05:07.041Z,2.63
2022-10-07T02:07:58.957Z,2.80
2022-10-07T02:10:36.437Z,2.90
2022-10-07T02:13:12.297Z,2.63
2022-10-07T02:15:58.796Z,2.53
2022-10-07T02:18:28.319Z,2.25
2022-10-07T02:20:56.003Z,2.78
2022-10-07T02:23:25.363Z,2.75
2022-10-07T02:25:53.869Z,2.50
2022-10-07T02:28:23.697Z,2.60
2022-10-07T02:30:56.040Z,3.10
2022-10-07T02:33:26.323Z,2.70
2022-10-07T02:35:56.882Z,3.20
2022-10-07T02:38:23.438Z,2.33
2022-10-07T02:41:06.051Z,2.30
2022-10-07T02:43:56.338Z,2.33
2022-10-07T02:46:29.452Z,2.35
2022-10-07T02:49:10.886Z,2.60
2022-10-07T02:51:43.652Z,2.40
2022-10-07T02:54:10.822Z,2.60
2022-10-07T02:56:40.717Z,2.78
2022-10-07T02:59:10.980Z,2.20
2022-10-07T03:01:45.349Z,2.20
2022-10-07T03:04:12.603Z,2.38
2022-10-07T03:06:39.274Z,2.30
2022-10-07T03:09:06.881Z,2.53
2022-10-07T03:11:33.384Z,2.50
2022-10-07T03:13:59.830Z,2.55
2022-10-07T03:16:26.407Z,2.75
2022-10-07T03:18:53.132Z,2.40
2022-10-07T03:21:19.614Z,2.20
2022-10-07T03:23:50.280Z,2.40
2022-10-07T03:26:17.472Z,2.67
2022-10-07T03:28:44.001Z,2.40
2022-10-07T03:31:14.231Z,2.58
2022-10-07T03:33:41.343Z,2.65
2022-10-07T03:36:08.644Z,2.80
2022-10-07T03:38:35.272Z,2.17
2022-10-07T03:41:04.432Z,2.20
2022-10-07T03:43:31.568Z,2.90
2022-10-07T03:46:02.305Z,2.50
2022-10-07T03:48:30.724Z,2.63
2022-10-07T03:50:57.700Z,2.85
2022-10-07T03:53:29.561Z,2.97
2022-10-07T03:55:56.781Z,2.95
2022-10-07T03:58:23.535Z,3.45
2022-10-07T04:00:50.065Z,2.72
2022-10-07T04:03:18.797Z,2.40
2022-10-07T04:05:57.161Z,2.47
2022-10-07T04:08:23.639Z,2.40
2022-10-07T04:10:50.098Z,2.35
2022-10-07T04:13:16.579Z,2.00
2022-10-07T04:15:43.030Z,2.67
2022-10-07T04:18:10.714Z,2.60
2022-10-07T04:20:40.455Z,2.20
2022-10-07T04:23:07.168Z,2.53
2022-10-07T04:25:33.659Z,3.35
2022-10-07T04:28:02.619Z,2.60
2022-10-07T04:30:33.888Z,2.45
2022-10-07T04:33:02.743Z,2.63
2022-10-07T04:35:29.815Z,2.58
2022-10-07T04:37:57.049Z,2.90
2022-10-07T04:40:24.861Z,2.53
2022-10-07T04:43:09.658Z,3.22
2022-10-07T04:45:37.102Z,3.30
2022-10-07T04:48:06.009Z,2.95
2022-10-07T04:50:33.871Z,3.17
2022-10-07T04:53:00.375Z,3.25
2022-10-07T04:55:27.035Z,3.67
2022-10-07T04:57:53.669Z,3.42
2022-10-07T05:00:20.167Z,3.45
2022-10-07T05:02:50.389Z,3.58
2022-10-07T05:05:17.925Z,3.38
2022-10-07T05:07:50.236Z,3.30
2022-10-07T05:10:17.406Z,2.80
2022-10-07T05:12:44.004Z,3.05
2022-10-07T05:15:11.389Z,3.25
2022-10-07T05:17:41.205Z,2.63
2022-10-07T05:20:12.343Z,3.08
2022-10-07T05:22:39.480Z,3.17
2022-10-07T05:25:06.525Z,3.00
2022-10-07T05:27:32.977Z,3.33
2022-10-07T05:29:59.515Z,3.47
2022-10-07T05:32:26.518Z,3.03
2022-10-07T05:34:53.060Z,2.72
2022-10-07T05:37:19.509Z,2.70
2022-10-07T05:39:46.575Z,3.33
2022-10-07T05:42:13.672Z,2.80
2022-10-07T05:44:40.256Z,3.00
2022-10-07T05:47:06.753Z,3.58
2022-10-07T05:49:33.234Z,3.55
2022-10-07T05:51:59.677Z,3.60
2022-10-07T05:54:26.266Z,3.63
2022-10-07T05:56:53.918Z,4.65
2022-10-07T05:59:20.731Z,5.90
2022-10-07T06:01:47.336Z,5.15
2022-10-07T06:04:14.085Z,4.60
2022-10-07T06:06:40.610Z,4.40
2022-10-07T06:09:25.467Z,4.30
2022-10-07T06:12:10.507Z,4.68
2022-10-07T06:14:36.934Z,4.15
2022-10-07T06:17:04.731Z,3.50
2022-10-07T06:19:31.311Z,3.55
2022-10-07T06:21:57.890Z,3.30
2022-10-07T06:24:25.397Z,3.65
2022-10-07T06:26:55.310Z,3.90
2022-10-07T06:29:22.131Z,3.60
2022-10-07T06:31:48.684Z,4.32
2022-10-07T06:34:15.158Z,4.10
2022-10-07T06:36:42.388Z,3.63
2022-10-07T06:39:09.085Z,4.30
2022-10-07T06:41:35.583Z,4.15
2022-10-07T06:44:02.057Z,3.60
2022-10-07T06:46:28.657Z,3.30
2022-10-07T06:48:55.221Z,3.22
2022-10-07T06:51:22.314Z,3.45
2022-10-07T06:53:54.753Z,3.28
2022-10-07T06:56:21.370Z,3.90
2022-10-07T06:58:49.805Z,3.65
2022-10-07T07:01:16.784Z,3.65
2022-10-07T07:03:43.363Z,3.92
2022-10-07T07:06:11.104Z,3.97
2022-10-07T07:08:38.742Z,3.80
2022-10-07T07:11:29.919Z,3.75
2022-10-07T07:13:57.076Z,3.50
2022-10-07T07:16:24.417Z,3.05
2022-10-07T07:18:53.321Z,3.00
2022-10-07T07:21:20.346Z,3.13
2022-10-07T07:23:47.135Z,3.22
2022-10-07T07:26:14.110Z,3.05
2022-10-07T07:28:40.740Z,2.88
2022-10-07T07:31:09.406Z,2.75
2022-10-07T07:33:39.758Z,3.17
2022-10-07T07:36:17.865Z,2.72
2022-10-07T07:38:53.120Z,2.70
2022-10-07T07:41:26.210Z,3.15
2022-10-07T07:43:54.715Z,2.90
2022-10-07T07:46:23.918Z,3.15
2022-10-07T07:48:54.217Z,2.13
2022-10-07T07:51:21.858Z,2.33
2022-10-07T07:53:52.133Z,2.08
2022-10-07T07:56:19.840Z,1.77
2022-10-07T07:58:46.845Z,2.53
2022-10-07T08:01:16.201Z,1.95
2022-10-07T08:03:46.245Z,1.90
2022-10-07T08:06:15.355Z,2.10
2022-10-07T08:08:43.149Z,1.80
2022-10-07T08:11:11.637Z,2.25
2022-10-07T08:13:41.208Z,1.85
2022-10-07T08:16:09.724Z,1.63
2022-10-07T08:18:36.261Z,1.95
2022-10-07T08:21:05.191Z,2.17
2022-10-07T08:23:31.749Z,2.10
2022-10-07T08:25:59.815Z,1.70
2022-10-07T08:28:28.463Z,1.92
2022-10-07T08:30:55.549Z,1.98
2022-10-07T08:33:22.648Z,1.80
2022-10-07T08:35:58.575Z,1.70
2022-10-07T08:38:25.527Z,1.63
2022-10-07T08:40:53.533Z,2.03
2022-10-07T08:43:23.802Z,1.75
2022-10-07T08:45:52.701Z,1.65
2022-10-07T08:48:24.186Z,1.77
2022-10-07T08:51:13.488Z,1.83
2022-10-07T08:53:40.247Z,2.00
2022-10-07T08:56:14.075Z,2.00
2022-10-07T08:59:21.789Z,1.75
2022-10-07T09:02:17.920Z,1.85
2022-10-07T09:05:07.728Z,1.65
2022-10-07T09:07:37.924Z,1.80
2022-10-07T09:10:21.405Z,2.17
2022-10-07T09:12:58.240Z,1.70
2022-10-07T09:15:39.986Z,1.73
2022-10-07T09:18:19.265Z,1.70
2022-10-07T09:20:53.564Z,2.30
2022-10-07T09:23:33.842Z,1.70
2022-10-07T09:26:00.612Z,1.52
2022-10-07T09:28:32.456Z,1.75
2022-10-07T09:31:00.568Z,2.20
2022-10-07T09:33:29.731Z,1.60
2022-10-07T09:36:07.302Z,1.90
2022-10-07T09:38:42.800Z,1.60
2022-10-07T09:41:19.464Z,2.30
2022-10-07T09:43:57.271Z,1.90
2022-10-07T09:46:42.522Z,1.77
2022-10-07T09:49:26.888Z,1.70
2022-10-07T09:52:14.354Z,1.90
2022-10-07T09:54:42.423Z,1.90
2022-10-07T09:57:28.146Z,1.83
2022-10-07T10:00:14.498Z,1.63
2022-10-07T10:02:46.301Z,1.60
2022-10-07T10:07:58.349Z,1.90
2022-10-07T10:10:28.711Z,1.63
2022-10-07T10:12:58.075Z,1.90
2022-10-07T10:15:41.526Z,2.00
2022-10-07T10:18:29.384Z,1.85
2022-10-07T10:20:55.951Z,1.80
2022-10-07T10:23:35.864Z,1.40
2022-10-07T10:26:31.106Z,1.60
2022-10-07T10:29:21.099Z,1.52
2022-10-07T10:32:08.932Z,1.40
2022-10-07T10:35:02.446Z,1.77
2022-10-07T10:37:41.113Z,2.38
2022-10-07T10:40:32.370Z,1.95
2022-10-07T10:43:11.208Z,2.10
2022-10-07T10:45:59.540Z,1.40
2022-10-07T10:48:36.101Z,1.42
2022-10-07T10:51:24.028Z,1.80
2022-10-07T10:54:04.041Z,1.40
2022-10-07T10:56:42.713Z,1.80
2022-10-07T10:59:32.560Z,1.73
2022-10-07T11:02:29.425Z,1.70
2022-10-07T11:05:09.507Z,1.42
2022-10-07T11:07:42.033Z,1.90
2022-10-07T11:10:24.247Z,1.70
2022-10-07T11:12:58.208Z,1.55
2022-10-07T11:15:36.690Z,1.77
2022-10-07T11:18:13.024Z,1.85
2022-10-07T11:20:48.443Z,1.65
2022-10-07T11:23:30.170Z,1.65
2022-10-07T11:26:01.996Z,1.90
2022-10-07T11:28:30.416Z,1.58
2022-10-07T11:31:32.418Z,1.40
2022-10-07T11:34:35.501Z,1.85
2022-10-07T11:37:15.931Z,1.60
2022-10-07T11:39:42.859Z,1.98
2022-10-07T11:42:16.994Z,1.55
2022-10-07T11:45:06.887Z,1.80
2022-10-07T11:47:40.479Z,1.50
2022-10-07T11:50:19.438Z,1.75
2022-10-07T11:52:49.450Z,2.10
2022-10-07T11:55:28.994Z,1.80
2022-10-07T11:57:59.348Z,2.00
2022-10-07T12:00:32.693Z,1.80
2022-10-07T12:03:33.616Z,1.88
2022-10-07T12:06:13.684Z,2.00
2022-10-07T12:08:42.466Z,1.45
2022-10-07T12:11:15.028Z,2.03
2022-10-07T12:14:22.527Z,1.85
2022-10-07T12:16:54.694Z,1.40
2022-10-07T12:19:23.878Z,1.92
2022-10-07T12:21:59.727Z,2.00
2022-10-07T12:24:28.410Z,1.45
2022-10-07T12:27:07.657Z,1.58
2022-10-07T12:29:48.521Z,1.95
2022-10-07T12:32:51.101Z,1.67
2022-10-07T12:35:29.539Z,1.98
2022-10-07T12:38:23.446Z,1.48
2022-10-07T12:41:11.735Z,2.17
2022-10-07T12:43:41.098Z,1.67
2022-10-07T12:46:12.208Z,1.98
2022-10-07T12:49:05.094Z,1.80
2022-10-07T12:51:40.746Z,2.05
2022-10-07T12:54:18.912Z,1.55
2022-10-07T12:56:46.560Z,1.90
2022-10-07T12:59:54.774Z,1.77
2022-10-07T13:02:36.069Z,1.90
2022-10-07T13:05:33.699Z,1.48
2022-10-07T13:08:42.278Z,1.60
2022-10-07T13:11:18.082Z,1.52
2022-10-07T13:13:54.166Z,1.67
2022-10-07T13:16:35.847Z,1.70
2022-10-07T13:19:18.762Z,1.90
2022-10-07T13:22:15.770Z,1.73
2022-10-07T13:24:54.414Z,1.30
2022-10-07T13:27:28.343Z,1.48
2022-10-07T13:29:57.541Z,1.55
2022-10-07T13:32:30.300Z,1.42
2022-10-07T13:34:58.524Z,1.33
2022-10-07T13:37:36.208Z,1.35
2022-10-07T13:40:21.145Z,1.70
2022-10-07T13:42:59.888Z,1.52
2022-10-07T13:45:28.260Z,1.55
2022-10-07T13:47:55.996Z,1.42
2022-10-07T13:50:32.460Z,1.50
2022-10-07T13:52:59.164Z,1.70
2022-10-07T13:55:25.597Z,1.70
2022-10-07T13:57:54.834Z,1.25
2022-10-07T14:00:21.445Z,1.40
2022-10-07T14:02:50.645Z,1.48
2022-10-07T14:05:19.673Z,1.40
2022-10-07T14:07:46.186Z,1.83
2022-10-07T14:10:13.590Z,1.38
2022-10-07T14:12:47.311Z,1.67
2022-10-07T14:15:23.113Z,1.80
2022-10-07T14:17:55.399Z,1.65
2022-10-07T14:20:25.521Z,1.55
2022-10-07T14:22:58.480Z,1.67
2022-10-07T14:25:37.793Z,1.50
2022-10-07T14:28:15.716Z,1.35
2022-10-07T14:31:02.161Z,1.65
2022-10-07T14:33:53.008Z,1.70
2022-10-07T14:36:21.379Z,1.55
2022-10-07T14:38:50.211Z,1.60
2022-10-07T14:41:22.474Z,1.60
2022-10-07T14:43:50.154Z,1.50
2022-10-07T14:46:17.848Z,1.52
2022-10-07T14:48:45.552Z,1.60
2022-10-07T14:51:12.679Z,1.42
2022-10-07T14:53:41.966Z,1.58
2022-10-07T14:56:16.212Z,1.70
2022-10-07T14:58:46.053Z,1.30
2022-10-07T15:01:12.536Z,1.38
2022-10-07T15:03:39.010Z,1.70
2022-10-07T15:06:06.541Z,1.33
2022-10-07T15:08:33.024Z,1.65
2022-10-07T15:10:59.560Z,1.40
2022-10-07T15:13:28.217Z,1.55
2022-10-07T15:15:54.730Z,1.45
2022-10-07T15:18:21.562Z,1.50
2022-10-07T15:20:55.380Z,1.65
2022-10-07T15:23:21.826Z,1.33
2022-10-07T15:25:48.271Z,1.33
2022-10-07T15:28:17.174Z,1.33
2022-10-07T15:30:43.754Z,1.55
2022-10-07T15:33:12.461Z,1.58
2022-10-07T15:35:38.928Z,1.40
2022-10-07T15:38:05.411Z,1.52
2022-10-07T15:40:32.346Z,1.65
2022-10-07T15:42:59.127Z,1.80
2022-10-07T15:45:26.760Z,1.35
2022-10-07T15:47:58.091Z,1.60
2022-10-07T15:50:27.483Z,1.50
2022-10-07T15:52:54.757Z,1.45
2022-10-07T15:55:21.215Z,1.67
2022-10-07T15:57:47.940Z,1.67
2022-10-07T16:00:15.233Z,1.50
2022-10-07T16:02:41.853Z,1.83
2022-10-07T16:05:09.672Z,1.63
2022-10-07T16:07:36.503Z,1.30
2022-10-07T16:10:03.318Z,1.65
2022-10-07T16:12:29.952Z,1.42
2022-10-07T16:14:56.415Z,1.38
2022-10-07T16:17:22.856Z,1.38
2022-10-07T16:19:49.323Z,1.70
2022-10-07T16:22:16.534Z,1.55
2022-10-07T16:24:43.049Z,1.48
2022-10-07T16:27:09.543Z,1.30
2022-10-07T16:29:54.799Z,1.75
2022-10-07T16:32:21.307Z,1.52
2022-10-07T16:34:48.311Z,1.60
2022-10-07T16:37:15.472Z,1.50
2022-10-07T16:39:42.083Z,1.55
2022-10-07T16:42:08.795Z,1.75
2022-10-07T16:44:35.892Z,1.42
2022-10-07T16:47:02.963Z,1.70
2022-10-07T16:49:30.367Z,1.50
2022-10-07T16:51:57.941Z,2.63
2022-10-07T16:54:25.138Z,2.42
2022-10-07T16:56:52.745Z,2.95
2022-10-07T16:59:23.653Z,2.60
2022-10-07T17:01:52.564Z,2.30
2022-10-07T17:04:19.313Z,2.20
2022-10-07T17:06:46.399Z,2.42
2022-10-07T17:09:14.000Z,2.35
2022-10-07T17:11:41.253Z,2.20
2022-10-07T17:14:16.140Z,2.30
2022-10-07T17:16:45.705Z,2.58
2022-10-07T17:19:15.127Z,2.83
2022-10-07T17:21:42.234Z,2.90
2022-10-07T17:24:09.575Z,3.05
2022-10-07T17:26:37.341Z,3.15
2022-10-07T17:29:07.678Z,4.00
2022-10-07T17:31:36.755Z,4.38
2022-10-07T17:34:03.349Z,4.57
2022-10-07T17:36:31.974Z,5.10
2022-10-07T17:39:02.029Z,5.15
2022-10-07T17:41:34.134Z,5.60
2022-10-07T17:44:02.672Z,5.20
2022-10-07T17:46:32.901Z,5.60
2022-10-07T17:49:01.955Z,6.35
2022-10-07T17:51:31.214Z,6.40
2022-10-07T17:54:02.974Z,6.28
2022-10-07T17:56:31.878Z,7.05
2022-10-07T17:58:58.959Z,6.78
2022-10-07T18:01:28.816Z,7.57
2022-10-07T18:04:00.129Z,7.38
2022-10-07T18:06:30.218Z,7.28
2022-10-07T18:08:59.144Z,7.45
2022-10-07T18:11:46.515Z,8.13
2022-10-07T18:14:31.619Z,8.23
2022-10-07T18:16:59.350Z,7.20
2022-10-07T18:19:26.847Z,7.50
2022-10-07T18:21:56.223Z,8.35
2022-10-07T18:24:29.591Z,8.20
2022-10-07T18:27:00.144Z,7.75
2022-10-07T18:29:32.127Z,7.93
2022-10-07T18:34:25.543Z,6.95
2022-10-07T18:36:56.328Z,6.90
2022-10-07T18:39:23.552Z,7.18
2022-10-07T18:41:50.686Z,6.97
2022-10-07T18:44:17.216Z,7.07
2022-10-07T18:46:43.857Z,6.43
2022-10-07T18:49:13.638Z,6.07
2022-10-07T18:51:41.200Z,6.43
2022-10-07T18:54:08.391Z,5.57
2022-10-07T18:56:40.764Z,5.75
2022-10-07T18:59:11.246Z,6.30
2022-10-07T19:01:38.141Z,6.43
2022-10-07T19:04:06.763Z,6.00
2022-10-07T19:06:43.822Z,6.75
2022-10-07T19:09:18.313Z,6.20
2022-10-07T19:11:45.394Z,7.25
2022-10-07T19:14:12.082Z,8.95
2022-10-07T19:16:45.001Z,9.10
2022-10-07T19:19:15.070Z,10.38
2022-10-07T19:21:41.893Z,10.93
2022-10-07T19:24:08.490Z,11.07
2022-10-07T19:26:47.143Z,10.30
2022-10-07T19:29:15.338Z,8.05
2022-10-07T19:31:45.167Z,7.03
2022-10-07T19:34:14.929Z,6.10
2022-10-07T19:36:46.797Z,5.40
2022-10-07T19:39:16.638Z,4.63
2022-10-07T19:41:44.064Z,3.80
2022-10-07T19:44:11.307Z,4.35
2022-10-07T19:46:40.883Z,3.67
2022-10-07T19:49:09.490Z,4.00
2022-10-07T19:51:37.683Z,4.20
2022-10-07T19:54:12.986Z,4.50
2022-10-07T19:56:40.598Z,3.00
2022-10-07T19:59:10.506Z,2.75
2022-10-07T20:01:42.818Z,2.83
2022-10-07T20:04:18.772Z,2.30
2022-10-07T20:06:48.554Z,3.13
2022-10-07T20:09:17.687Z,2.40
2022-10-07T20:11:46.713Z,3.10
2022-10-07T20:14:15.265Z,3.90
2022-10-07T20:16:42.219Z,2.50
2022-10-07T20:19:15.436Z,2.00
2022-10-07T20:21:42.350Z,2.08
2022-10-07T20:24:15.600Z,2.20
2022-10-07T20:26:43.811Z,2.70
2022-10-07T20:29:11.922Z,2.00
2022-10-07T20:31:41.256Z,2.22
2022-10-07T20:34:11.220Z,2.45
2022-10-07T20:36:38.437Z,1.92
2022-10-07T20:39:32.866Z,2.55
2022-10-07T20:42:17.730Z,1.90
2022-10-07T20:44:44.221Z,1.88
2022-10-07T20:47:11.141Z,1.90
2022-10-07T20:49:41.409Z,2.10
2022-10-07T20:52:11.518Z,2.40
2022-10-07T20:54:38.116Z,2.45
2022-10-07T20:57:05.285Z,2.20
2022-10-07T20:59:32.721Z,2.05
2022-10-07T21:02:00.117Z,2.25
2022-10-07T21:04:28.367Z,2.33
2022-10-07T21:06:58.365Z,2.22
2022-10-07T21:09:25.855Z,2.17
2022-10-07T21:11:53.475Z,2.20
2022-10-07T21:14:20.095Z,2.45
2022-10-07T21:16:48.463Z,2.63
2022-10-07T21:19:16.514Z,2.30
2022-10-07T21:21:43.094Z,2.70
2022-10-07T21:24:09.777Z,2.40
2022-10-07T21:26:36.614Z,2.50
2022-10-07T21:29:05.015Z,3.03
2022-10-07T21:31:31.631Z,2.33
2022-10-07T21:34:01.556Z,2.80
2022-10-07T21:36:28.256Z,2.72
2022-10-07T21:38:59.444Z,3.03
2022-10-07T21:41:38.514Z,3.30
2022-10-07T21:44:09.765Z,3.05
2022-10-07T21:46:36.888Z,2.58
2022-10-07T21:49:04.283Z,3.17
2022-10-07T21:51:32.190Z,3.20
2022-10-07T21:53:58.701Z,2.88
2022-10-07T21:56:30.530Z,3.13
2022-10-07T21:58:59.841Z,3.15
2022-10-07T22:01:26.587Z,3.30
2022-10-07T22:04:03.379Z,2.63
2022-10-07T22:06:50.189Z,3.17
2022-10-07T22:09:21.304Z,3.10
2022-10-07T22:11:49.183Z,2.97
2022-10-07T22:14:18.608Z,3.20
2022-10-07T22:16:47.901Z,3.00
2022-10-07T22:19:14.709Z,3.20
2022-10-07T22:21:41.571Z,3.30
2022-10-07T22:24:09.147Z,2.88
2022-10-07T22:26:39.029Z,3.15
2022-10-07T22:29:07.426Z,3.10
2022-10-07T22:31:34.116Z,2.75
2022-10-07T22:34:01.004Z,2.80
2022-10-07T22:36:29.098Z,3.22
2022-10-07T22:38:57.180Z,2.80
2022-10-07T22:41:24.591Z,2.85
2022-10-07T22:43:52.872Z,2.85
2022-10-07T22:46:26.979Z,2.83
2022-10-07T22:48:56.166Z,2.80
2022-10-07T22:51:24.359Z,3.10
2022-10-07T22:53:53.821Z,2.88
2022-10-07T22:56:21.741Z,2.75
2022-10-07T22:58:58.079Z,3.05
2022-10-07T23:01:28.563Z,3.25
2022-10-07T23:03:58.306Z,3.08
2022-10-07T23:06:25.359Z,2.83
2022-10-07T23:08:51.893Z,2.58
2022-10-07T23:11:23.764Z,2.92
2022-10-07T23:13:54.976Z,3.13
2022-10-07T23:16:24.620Z,2.92
2022-10-07T23:18:53.560Z,3.22
2022-10-07T23:21:22.951Z,3.05
2022-10-07T23:23:52.220Z,3.15
2022-10-07T23:26:21.396Z,3.38
2022-10-07T23:28:49.624Z,2.90
2022-10-07T23:31:18.466Z,3.10
2022-10-07T23:33:47.408Z,2.97
2022-10-07T23:36:17.867Z,2.80
2022-10-07T23:38:44.644Z,2.95
2022-10-07T23:41:13.625Z,3.20
2022-10-07T23:43:40.507Z,3.20
2022-10-07T23:46:10.437Z,3.58
2022-10-07T23:48:37.002Z,2.88
2022-10-07T23:51:05.893Z,3.00
2022-10-07T23:53:34.373Z,2.97
2022-10-07T23:56:01.293Z,3.33
2022-10-07T23:58:29.786Z,3.20
